Paganella, Italy
Alba: 4:32 AM UTC1
Tramonto: 7:52 PM UTC1
 Lat: 46.13N, Lon: 11.02E
ICAO Used: LIVP
Condizioni Meteo Attuali Aggiornate: 25.05.2018 alle 13:55 UTC
Cumuli Torreggianti Osservati
Cumuli Torreggianti Osservati
Cumuli Torreggianti Osservati
Temp: 13°C
Umidita': 44%
Direz/Vel. Vento: SW 7 / KT raffiche
Pressione: 1023 hPa
Punto di rugiada: 1°C
Temperatura percepita: 12°C
Visibilitą: >10 KM (ottima)
Temperatura percepita in
presenza di vento (Wind Chill)
:
11°C
T. max (ultime 24 ore): 11°C
T. min (ultime 24 ore): 5°C


METAR ORIGINALE
LIVP 251355Z 23007KT 9999 FEW015TCU 13/01 Q1023 RMK BKN MON CLD SCT VAL NIL VIS MIN 9999S



[ Indietro ]


Elaborazione dati by Datameteo.com - Lrc srl Copyright ©, All rights reserved.